Wyoming, Minnesota
Current Conditions -  °F | °C
As of 8:55 AM on Friday 19 Dec 2014 (Local Time) from KOEO Reporting Station
Overcast Overcast  
Wind Chill: 15°   Ceiling: 3400
Heat Index: 24°   Visibility: 10mi
Dew Point: 19°   Wind: 7mph
Humidity: 84%   Direction: 150°SSE
Pressure: 30.28"   Gusts: NA
Location:  45.34°N, 93°W
Report Text: KOEO 191455Z AUTO 15006KT 10SM OVC034 M05/M07 A3028 RMK AO2 T10471070
Loading
Personal Weather Stations






























Interactive Weather Map New forecast layout! Learn more

10-Day Weather Forecast

Advertisements
Track Severe Weather on mobile